Time;durP1;ratioP1;P1;durP2;ratioP2;P2;SDS_P1;SDS_P2;PMS_P1;PMS_P2;Temp;Humidity;BMP_temperature;BMP_pressure;BME280_temperature;BME280_humidity;BME280_pressure;Samples;Min_cycle;Max_cycle;Signal;HPM_P1;HPM_P2
2022/07/08 00:02:19;;;;;;;;;5.67;4.00;;;;;;;;5065197;28;51139;-70
2022/07/08 00:04:44;;;;;;;;;5.00;4.00;;;;;;;;5074280;28;51184;-70
2022/07/08 00:07:09;;;;;;;;;4.00;4.00;;;;;;;;5063698;28;52251;-69
2022/07/08 00:09:35;;;;;;;;;4.00;4.00;;;;;;;;5054004;28;51262;-70
2022/07/08 00:12:00;;;;;;;;;5.00;5.00;;;;;;;;5055666;28;51259;-70
2022/07/08 00:14:25;;;;;;;;;4.33;4.33;;;;;;;;5065897;28;51462;-71
2022/07/08 00:16:51;;;;;;;;;4.00;4.00;;;;;;;;5056363;28;51756;-71
2022/07/08 00:19:19;;;;;;;;;6.33;6.00;;;;;;;;5054782;28;50860;-70
2022/07/08 00:21:44;;;;;;;;;7.00;5.67;;;;;;;;5061636;28;52497;-70
2022/07/08 00:24:13;;;;;;;;;5.00;5.00;;;;;;;;5064413;27;51107;-70
2022/07/08 00:26:39;;;;;;;;;3.00;2.00;;;;;;;;5060358;28;52780;-70
2022/07/08 00:29:05;;;;;;;;;4.00;4.00;;;;;;;;5052519;28;51030;-70
2022/07/08 00:31:30;;;;;;;;;4.00;4.00;;;;;;;;5055153;28;51331;-70
2022/07/08 00:33:56;;;;;;;;;5.00;4.33;;;;;;;;5070750;28;51389;-71
2022/07/08 00:36:21;;;;;;;;;4.67;4.67;;;;;;;;5062251;28;51257;-70
2022/07/08 00:38:46;;;;;;;;;5.00;4.67;;;;;;;;5056871;28;51236;-70
2022/07/08 00:41:11;;;;;;;;;7.00;5.00;;;;;;;;5052734;28;50891;-70
2022/07/08 00:43:40;;;;;;;;;4.00;4.00;;;;;;;;5053924;28;51305;-72
2022/07/08 00:46:06;;;;;;;;;5.00;5.00;;;;;;;;5047180;28;51960;-71
2022/07/08 00:48:31;;;;;;;;;5.00;5.00;;;;;;;;5065224;28;50963;-70
2022/07/08 00:51:02;;;;;;;;;4.00;4.00;;;;;;;;5061501;28;51259;-71
2022/07/08 00:53:28;;;;;;;;;5.00;4.00;;;;;;;;5040463;28;51300;-69
2022/07/08 00:55:53;;;;;;;;;4.33;4.33;;;;;;;;5056502;28;51332;-70
2022/07/08 00:58:19;;;;;;;;;4.33;4.33;;;;;;;;5052309;28;51231;-70
2022/07/08 01:00:44;;;;;;;;;1.00;1.00;;;;;;;;5062432;28;51260;-69
2022/07/08 01:03:09;;;;;;;;;5.00;4.00;;;;;;;;5069632;28;51212;-70
2022/07/08 01:05:34;;;;;;;;;6.00;6.00;;;;;;;;5071595;28;51266;-68
2022/07/08 01:07:59;;;;;;;;;3.00;3.00;;;;;;;;5053830;28;51280;-71
2022/07/08 01:10:25;;;;;;;;;5.33;4.67;;;;;;;;5058046;28;51179;-71
2022/07/08 01:12:50;;;;;;;;;3.67;3.67;;;;;;;;5053228;28;51097;-71
2022/07/08 01:15:16;;;;;;;;;4.00;3.00;;;;;;;;5056447;28;51073;-69
2022/07/08 01:17:42;;;;;;;;;4.00;3.67;;;;;;;;5065371;28;51112;-69
2022/07/08 01:20:08;;;;;;;;;3.00;3.00;;;;;;;;5056605;28;51110;-69
2022/07/08 01:22:33;;;;;;;;;5.00;4.33;;;;;;;;5059108;28;51174;-70
2022/07/08 01:24:58;;;;;;;;;4.00;3.00;;;;;;;;5060619;28;52114;-70
2022/07/08 01:27:24;;;;;;;;;4.00;4.00;;;;;;;;5056117;28;50994;-70
2022/07/08 01:29:49;;;;;;;;;5.00;5.00;;;;;;;;5061728;28;50967;-70
2022/07/08 01:32:14;;;;;;;;;6.00;5.00;;;;;;;;5072183;28;51061;-69
2022/07/08 01:34:40;;;;;;;;;5.67;5.00;;;;;;;;5055358;28;51607;-71
2022/07/08 01:37:05;;;;;;;;;5.33;4.33;;;;;;;;5052913;28;50984;-69
2022/07/08 01:39:30;;;;;;;;;4.00;4.00;;;;;;;;5056160;28;51178;-71
2022/07/08 01:41:55;;;;;;;;;4.33;4.00;;;;;;;;5067777;28;51052;-70
2022/07/08 01:44:20;;;;;;;;;3.00;3.00;;;;;;;;5069288;28;51989;-70
2022/07/08 01:46:46;;;;;;;;;1.00;0.67;;;;;;;;5061671;28;51316;-70
2022/07/08 01:49:14;;;;;;;;;3.00;3.00;;;;;;;;5053579;28;51102;-70
2022/07/08 01:51:39;;;;;;;;;3.00;3.00;;;;;;;;5057612;28;51100;-69
2022/07/08 01:54:04;;;;;;;;;4.00;4.00;;;;;;;;5062548;28;51136;-70
2022/07/08 01:56:30;;;;;;;;;5.00;5.00;;;;;;;;5064514;28;51033;-69
2022/07/08 01:58:55;;;;;;;;;3.67;3.00;;;;;;;;5054662;28;51243;-69
2022/07/08 02:01:20;;;;;;;;;4.00;4.00;;;;;;;;5054807;28;50946;-69
2022/07/08 02:03:45;;;;;;;;;3.67;3.00;;;;;;;;5051843;28;52460;-70
2022/07/08 02:06:11;;;;;;;;;4.33;4.00;;;;;;;;5065672;28;51735;-70
2022/07/08 02:08:36;;;;;;;;;5.00;5.00;;;;;;;;5052261;28;51107;-70
2022/07/08 02:13:45;;;;;;;;;4.33;4.33;;;;;;;;5056041;28;52130;-69
2022/07/08 02:16:10;;;;;;;;;2.00;1.00;;;;;;;;5069296;28;51150;-70
2022/07/08 02:18:35;;;;;;;;;4.00;3.67;;;;;;;;5067357;28;51185;-70
2022/07/08 02:21:00;;;;;;;;;5.33;5.33;;;;;;;;5052630;28;51365;-70
2022/07/08 02:23:26;;;;;;;;;5.67;4.33;;;;;;;;5052484;28;51990;-71
2022/07/08 02:25:51;;;;;;;;;4.00;4.00;;;;;;;;5059497;28;51012;-70
2022/07/08 02:28:16;;;;;;;;;3.00;2.67;;;;;;;;5052576;28;51122;-70
2022/07/08 02:30:41;;;;;;;;;2.67;2.67;;;;;;;;5068457;28;51036;-69
2022/07/08 02:33:06;;;;;;;;;2.33;2.33;;;;;;;;5059545;28;51200;-69
2022/07/08 02:35:32;;;;;;;;;4.00;3.00;;;;;;;;5064207;28;51096;-71
2022/07/08 02:37:57;;;;;;;;;4.00;3.00;;;;;;;;5052030;28;51067;-69
2022/07/08 02:40:22;;;;;;;;;3.00;3.00;;;;;;;;5063581;28;51439;-69
2022/07/08 02:42:47;;;;;;;;;3.00;3.00;;;;;;;;5059170;28;53283;-69
2022/07/08 02:45:12;;;;;;;;;5.33;5.00;;;;;;;;5052175;28;50951;-70
2022/07/08 02:47:38;;;;;;;;;3.67;3.00;;;;;;;;5052174;28;51029;-70
2022/07/08 02:50:03;;;;;;;;;3.00;3.00;;;;;;;;5042142;28;51130;-70
2022/07/08 02:52:28;;;;;;;;;4.00;4.00;;;;;;;;5061411;28;52870;-69
2022/07/08 02:54:53;;;;;;;;;3.00;3.00;;;;;;;;5059047;28;50826;-69
2022/07/08 02:57:19;;;;;;;;;4.00;4.00;;;;;;;;5069641;28;50808;-70
2022/07/08 02:59:44;;;;;;;;;6.00;4.33;;;;;;;;5060988;28;51185;-70
2022/07/08 03:02:09;;;;;;;;;4.33;4.00;;;;;;;;5052976;28;51014;-69
2022/07/08 03:04:34;;;;;;;;;3.00;3.00;;;;;;;;5052182;28;51043;-70
2022/07/08 03:07:00;;;;;;;;;3.00;3.00;;;;;;;;5050885;28;50888;-70
2022/07/08 03:09:25;;;;;;;;;4.00;3.75;;;;;;;;5055541;28;51062;-70
2022/07/08 03:11:50;;;;;;;;;5.00;5.00;;;;;;;;5068668;28;52148;-69
2022/07/08 03:14:15;;;;;;;;;5.00;4.00;;;;;;;;5053661;28;50923;-70
2022/07/08 03:16:40;;;;;;;;;3.00;3.00;;;;;;;;5069416;28;50988;-70
2022/07/08 03:19:06;;;;;;;;;5.00;4.00;;;;;;;;5064848;28;50996;-69
2022/07/08 03:21:31;;;;;;;;;5.00;4.67;;;;;;;;5058219;28;51746;-69
2022/07/08 03:23:56;;;;;;;;;2.00;2.00;;;;;;;;5055091;28;51078;-69
2022/07/08 03:26:21;;;;;;;;;4.00;4.00;;;;;;;;5064756;28;51340;-69
2022/07/08 03:28:47;;;;;;;;;4.00;3.33;;;;;;;;5055785;28;51094;-69
2022/07/08 03:31:12;;;;;;;;;4.00;3.00;;;;;;;;5060047;28;51600;-70
2022/07/08 03:33:38;;;;;;;;;4.33;3.33;;;;;;;;5061258;28;51297;-69
2022/07/08 03:36:05;;;;;;;;;4.75;4.75;;;;;;;;5066657;28;50862;-69
2022/07/08 03:38:30;;;;;;;;;4.67;4.67;;;;;;;;5056986;28;51022;-69
2022/07/08 03:43:41;;;;;;;;;4.00;4.00;;;;;;;;5057324;28;51024;-69
2022/07/08 03:46:07;;;;;;;;;4.33;4.00;;;;;;;;5053975;28;51112;-69
2022/07/08 03:48:32;;;;;;;;;4.33;4.33;;;;;;;;5054841;28;51339;-70
2022/07/08 03:50:57;;;;;;;;;4.00;4.00;;;;;;;;5062821;28;51741;-70
2022/07/08 03:53:22;;;;;;;;;4.33;4.33;;;;;;;;5063043;28;51100;-70
2022/07/08 03:55:47;;;;;;;;;4.00;4.00;;;;;;;;5071625;28;51160;-69
2022/07/08 03:58:13;;;;;;;;;4.00;4.00;;;;;;;;5059151;28;50899;-68
2022/07/08 04:00:38;;;;;;;;;3.00;3.00;;;;;;;;5068902;28;52836;-70
2022/07/08 04:03:03;;;;;;;;;4.33;4.00;;;;;;;;5060184;28;51100;-70
2022/07/08 04:05:28;;;;;;;;;5.00;4.67;;;;;;;;5060864;28;51020;-69
2022/07/08 04:07:53;;;;;;;;;3.67;3.00;;;;;;;;5046734;28;51121;-70
2022/07/08 04:10:19;;;;;;;;;3.67;3.67;;;;;;;;5068810;28;50959;-69
2022/07/08 04:12:44;;;;;;;;;3.00;3.00;;;;;;;;5054756;28;50916;-70
2022/07/08 04:15:09;;;;;;;;;5.67;4.00;;;;;;;;5060537;28;50861;-69
2022/07/08 04:17:35;;;;;;;;;10.75;8.50;;;;;;;;5059635;28;51116;-68
2022/07/08 04:20:00;;;;;;;;;4.33;4.00;;;;;;;;5061984;28;51919;-70
2022/07/08 04:22:25;;;;;;;;;5.00;4.33;;;;;;;;5065530;28;51086;-68
2022/07/08 04:24:50;;;;;;;;;4.25;4.25;;;;;;;;5057494;28;51284;-70
2022/07/08 04:27:15;;;;;;;;;5.00;3.75;;;;;;;;5053993;28;51254;-69
2022/07/08 04:29:41;;;;;;;;;5.00;4.00;;;;;;;;5064072;28;51285;-69
2022/07/08 04:32:06;;;;;;;;;7.67;5.00;;;;;;;;5066859;28;51314;-69
2022/07/08 04:34:31;;;;;;;;;5.00;5.00;;;;;;;;5054985;28;51111;-69
2022/07/08 04:36:56;;;;;;;;;5.00;5.00;;;;;;;;5054288;28;50915;-70
2022/07/08 04:39:21;;;;;;;;;6.00;5.00;;;;;;;;5057982;28;50922;-69
2022/07/08 04:41:47;;;;;;;;;5.00;4.33;;;;;;;;5073487;28;50877;-69
2022/07/08 04:44:12;;;;;;;;;4.33;4.00;;;;;;;;5053569;28;51041;-69
2022/07/08 04:46:37;;;;;;;;;7.00;5.00;;;;;;;;5060172;28;51464;-70
2022/07/08 04:49:03;;;;;;;;;4.67;4.00;;;;;;;;5057216;28;52067;-69
2022/07/08 04:51:28;;;;;;;;;4.00;4.00;;;;;;;;5039855;28;50944;-69
2022/07/08 04:53:53;;;;;;;;;5.00;5.00;;;;;;;;5060380;28;51262;-70
2022/07/08 04:56:18;;;;;;;;;6.00;5.00;;;;;;;;5061521;28;51126;-70
2022/07/08 04:58:43;;;;;;;;;4.67;4.67;;;;;;;;5053521;28;51243;-69
2022/07/08 05:01:09;;;;;;;;;6.00;5.00;;;;;;;;5064827;28;51152;-70
2022/07/08 05:03:34;;;;;;;;;6.00;6.00;;;;;;;;5060099;28;51188;-69
2022/07/08 05:05:59;;;;;;;;;4.00;4.00;;;;;;;;5053581;27;51169;-72
2022/07/08 05:08:24;;;;;;;;;5.00;4.00;;;;;;;;5059819;28;51891;-71
2022/07/08 05:10:49;;;;;;;;;3.67;3.67;;;;;;;;5066756;28;51199;-71
2022/07/08 05:13:15;;;;;;;;;5.00;5.00;;;;;;;;5067177;28;51412;-72
2022/07/08 05:15:40;;;;;;;;;7.33;6.00;;;;;;;;5063625;27;51270;-70
2022/07/08 05:18:05;;;;;;;;;5.33;5.33;;;;;;;;5062216;28;52005;-71
2022/07/08 05:20:31;;;;;;;;;4.00;4.00;;;;;;;;5066196;28;50980;-70
2022/07/08 05:22:56;;;;;;;;;6.00;5.67;;;;;;;;5067199;27;51231;-71
2022/07/08 05:25:21;;;;;;;;;6.33;5.67;;;;;;;;5067073;28;51490;-71
2022/07/08 05:27:46;;;;;;;;;6.00;6.00;;;;;;;;5062265;28;51881;-70
2022/07/08 05:30:12;;;;;;;;;9.00;8.00;;;;;;;;5064677;28;51131;-69
2022/07/08 05:32:37;;;;;;;;;6.67;6.33;;;;;;;;5056990;28;51104;-70
2022/07/08 05:35:04;;;;;;;;;8.67;8.33;;;;;;;;5036827;28;51206;-71
2022/07/08 05:37:29;;;;;;;;;6.33;5.33;;;;;;;;5051296;28;51913;-70
2022/07/08 05:39:54;;;;;;;;;6.67;6.00;;;;;;;;5056040;28;51145;-77
2022/07/08 05:42:20;;;;;;;;;8.00;8.00;;;;;;;;5052044;28;51259;-78
2022/07/08 05:44:45;;;;;;;;;5.00;5.00;;;;;;;;5056641;28;51244;-80
2022/07/08 05:47:10;;;;;;;;;5.00;4.67;;;;;;;;5056658;28;51109;-78
2022/07/08 05:49:36;;;;;;;;;4.00;4.00;;;;;;;;5064003;28;51151;-79
2022/07/08 05:52:02;;;;;;;;;6.00;6.00;;;;;;;;5059485;28;51097;-78
2022/07/08 05:54:27;;;;;;;;;2.00;2.00;;;;;;;;5059234;28;51158;-79
2022/07/08 05:56:53;;;;;;;;;4.33;4.00;;;;;;;;5060187;28;51598;-76
2022/07/08 05:59:18;;;;;;;;;4.00;4.00;;;;;;;;5063475;27;51397;-74
2022/07/08 06:01:44;;;;;;;;;5.00;5.00;;;;;;;;5057664;28;51080;-76
2022/07/08 06:04:09;;;;;;;;;4.33;4.33;;;;;;;;5055854;28;51163;-75
2022/07/08 06:06:34;;;;;;;;;4.33;3.67;;;;;;;;5049443;28;51807;-76
2022/07/08 06:08:59;;;;;;;;;3.33;3.00;;;;;;;;5051395;28;51267;-77
2022/07/08 06:11:24;;;;;;;;;6.00;4.67;;;;;;;;5061072;28;51095;-75
2022/07/08 06:13:50;;;;;;;;;5.33;4.33;;;;;;;;5063137;28;51410;-77
2022/07/08 06:16:15;;;;;;;;;4.00;3.67;;;;;;;;5059317;28;51846;-76
2022/07/08 06:18:40;;;;;;;;;4.33;3.00;;;;;;;;5067465;28;51232;-76
2022/07/08 06:21:05;;;;;;;;;3.00;3.00;;;;;;;;5052437;28;51360;-75
2022/07/08 06:23:31;;;;;;;;;4.00;3.33;;;;;;;;5068698;28;50983;-77
2022/07/08 06:25:57;;;;;;;;;2.67;2.67;;;;;;;;5068240;28;52203;-76
2022/07/08 06:28:23;;;;;;;;;3.00;2.67;;;;;;;;5037332;28;51164;-77
2022/07/08 06:30:48;;;;;;;;;4.00;3.33;;;;;;;;5058065;28;51251;-77
2022/07/08 06:33:13;;;;;;;;;4.00;4.00;;;;;;;;5065932;28;51201;-76
2022/07/08 06:35:38;;;;;;;;;5.00;4.00;;;;;;;;5054078;28;51056;-77
2022/07/08 06:38:03;;;;;;;;;3.67;3.00;;;;;;;;5063023;28;51079;-73
2022/07/08 06:40:29;;;;;;;;;3.67;3.67;;;;;;;;5061129;28;51032;-76
2022/07/08 06:42:54;;;;;;;;;5.33;4.00;;;;;;;;5038056;28;51117;-76
2022/07/08 06:45:20;;;;;;;;;4.33;3.33;;;;;;;;5065409;27;51756;-77
2022/07/08 06:47:45;;;;;;;;;3.00;3.00;;;;;;;;5053426;28;51163;-76
2022/07/08 06:50:10;;;;;;;;;3.00;3.00;;;;;;;;5055644;28;51098;-75
2022/07/08 06:52:36;;;;;;;;;4.67;4.00;;;;;;;;5065930;28;51269;-77
2022/07/08 06:55:02;;;;;;;;;4.33;4.00;;;;;;;;5056809;28;51894;-76
2022/07/08 06:57:27;;;;;;;;;3.33;3.00;;;;;;;;5059490;28;51093;-75
2022/07/08 06:59:52;;;;;;;;;3.00;3.00;;;;;;;;5064585;28;51055;-75
2022/07/08 07:02:18;;;;;;;;;4.00;2.67;;;;;;;;5061400;28;50987;-76
2022/07/08 07:04:44;;;;;;;;;2.33;2.33;;;;;;;;5061190;28;52249;-76
2022/07/08 07:07:10;;;;;;;;;4.33;3.00;;;;;;;;5062524;28;51173;-79
2022/07/08 07:09:35;;;;;;;;;8.67;7.67;;;;;;;;5058501;28;51383;-78
2022/07/08 07:12:01;;;;;;;;;5.00;4.67;;;;;;;;5060567;28;51164;-79
2022/07/08 07:14:26;;;;;;;;;4.33;4.33;;;;;;;;5055551;28;51147;-81
2022/07/08 07:16:51;;;;;;;;;4.67;4.00;;;;;;;;5063671;28;51122;-78
2022/07/08 07:19:16;;;;;;;;;6.00;6.00;;;;;;;;5058576;28;51035;-80
2022/07/08 07:21:42;;;;;;;;;5.33;4.33;;;;;;;;5065366;28;51349;-80
2022/07/08 07:24:07;;;;;;;;;2.00;1.67;;;;;;;;5068855;28;51275;-80
2022/07/08 07:26:32;;;;;;;;;3.33;3.00;;;;;;;;5068412;28;51082;-82
2022/07/08 07:28:57;;;;;;;;;7.00;6.00;;;;;;;;5062444;28;51106;-79
2022/07/08 07:31:23;;;;;;;;;4.00;4.00;;;;;;;;5059888;28;51033;-83
2022/07/08 07:33:48;;;;;;;;;5.33;5.33;;;;;;;;5052674;28;52056;-80
2022/07/08 07:36:13;;;;;;;;;4.67;4.67;;;;;;;;5058199;28;51121;-83
2022/07/08 07:38:38;;;;;;;;;5.00;5.00;;;;;;;;5054325;28;51001;-81
2022/07/08 07:41:04;;;;;;;;;5.33;5.00;;;;;;;;5058312;28;51091;-82
2022/07/08 07:43:29;;;;;;;;;4.67;4.67;;;;;;;;5062425;27;50830;-84
2022/07/08 07:45:54;;;;;;;;;6.00;6.00;;;;;;;;5050924;28;51036;-82
2022/07/08 07:48:19;;;;;;;;;4.33;4.33;;;;;;;;5062124;28;51036;-83
2022/07/08 07:50:45;;;;;;;;;5.67;5.67;;;;;;;;5061019;28;51249;-81
2022/07/08 07:53:10;;;;;;;;;8.00;6.00;;;;;;;;5060898;28;51111;-82
2022/07/08 07:55:36;;;;;;;;;6.33;6.00;;;;;;;;5058600;28;51213;-82
2022/07/08 07:58:01;;;;;;;;;5.00;5.00;;;;;;;;5059047;28;50972;-82
2022/07/08 08:00:26;;;;;;;;;7.00;6.00;;;;;;;;5053733;28;51363;-82
2022/07/08 08:02:52;;;;;;;;;6.00;5.33;;;;;;;;5067511;27;52643;-83
2022/07/08 08:05:18;;;;;;;;;5.00;4.33;;;;;;;;5057662;28;51309;-80
2022/07/08 08:07:43;;;;;;;;;7.67;6.33;;;;;;;;5055395;28;50884;-80
2022/07/08 08:10:08;;;;;;;;;7.67;7.00;;;;;;;;5054679;28;51122;-79
2022/07/08 08:12:34;;;;;;;;;7.00;6.00;;;;;;;;5060971;27;51382;-76
2022/07/08 08:14:59;;;;;;;;;5.67;5.00;;;;;;;;5058560;28;51133;-77
2022/07/08 08:17:24;;;;;;;;;8.00;7.00;;;;;;;;5062406;28;51036;-74
2022/07/08 08:19:49;;;;;;;;;5.33;5.33;;;;;;;;5041124;28;51504;-77
2022/07/08 08:22:15;;;;;;;;;5.33;5.33;;;;;;;;5053542;28;52157;-76
2022/07/08 08:24:40;;;;;;;;;6.33;6.33;;;;;;;;5053565;28;51030;-73
2022/07/08 08:27:05;;;;;;;;;5.33;5.33;;;;;;;;5054174;28;51226;-77
2022/07/08 08:29:31;;;;;;;;;6.67;4.33;;;;;;;;5054513;28;51035;-77
2022/07/08 08:31:56;;;;;;;;;7.00;5.67;;;;;;;;5055818;28;51325;-79
2022/07/08 08:34:21;;;;;;;;;8.67;6.67;;;;;;;;5061530;28;51074;-76
2022/07/08 08:36:46;;;;;;;;;5.33;5.33;;;;;;;;5067506;28;51127;-76
2022/07/08 08:39:11;;;;;;;;;7.00;5.00;;;;;;;;5067232;28;51037;-77
2022/07/08 08:41:38;;;;;;;;;4.33;4.33;;;;;;;;5059762;28;51596;-77
2022/07/08 08:44:03;;;;;;;;;5.00;5.00;;;;;;;;5066995;28;51152;-78
2022/07/08 08:46:31;;;;;;;;;6.67;5.33;;;;;;;;5066836;28;50939;-79
2022/07/08 08:48:56;;;;;;;;;6.33;5.33;;;;;;;;5054221;28;51217;-78
2022/07/08 08:51:22;;;;;;;;;8.00;7.67;;;;;;;;5064067;28;51175;-77
2022/07/08 08:53:47;;;;;;;;;4.33;4.33;;;;;;;;5042454;28;51013;-77
2022/07/08 08:56:14;;;;;;;;;8.33;8.33;;;;;;;;5054683;28;50920;-79
2022/07/08 08:58:40;;;;;;;;;6.67;6.00;;;;;;;;5067993;28;51254;-79
2022/07/08 09:01:07;;;;;;;;;4.67;4.67;;;;;;;;5055603;28;51194;-80
2022/07/08 09:03:32;;;;;;;;;6.33;5.33;;;;;;;;5067584;28;51096;-79
2022/07/08 09:05:57;;;;;;;;;5.00;5.00;;;;;;;;5060783;28;51034;-78
2022/07/08 09:08:22;;;;;;;;;4.00;4.00;;;;;;;;5062223;28;50993;-78
2022/07/08 09:10:48;;;;;;;;;4.00;4.00;;;;;;;;5056731;28;51655;-78
2022/07/08 09:13:17;;;;;;;;;6.33;5.33;;;;;;;;5058081;28;51185;-78
2022/07/08 09:15:42;;;;;;;;;5.00;4.67;;;;;;;;5062924;28;51026;-78
2022/07/08 09:18:08;;;;;;;;;5.00;5.00;;;;;;;;5070735;28;51256;-79
2022/07/08 09:20:38;;;;;;;;;4.00;4.00;;;;;;;;5059500;28;52164;-77
2022/07/08 09:23:03;;;;;;;;;6.33;6.00;;;;;;;;5060994;28;51173;-80
2022/07/08 09:25:30;;;;;;;;;4.67;3.67;;;;;;;;5065763;28;50857;-81
2022/07/08 09:27:58;;;;;;;;;5.00;5.00;;;;;;;;5054511;28;51205;-79
2022/07/08 09:30:26;;;;;;;;;7.00;7.00;;;;;;;;5062088;28;52309;-80
2022/07/08 09:33:02;;;;;;;;;5.00;4.00;;;;;;;;5072037;28;50949;-79
2022/07/08 09:35:30;;;;;;;;;5.33;4.33;;;;;;;;5058166;28;51089;-79
2022/07/08 09:37:56;;;;;;;;;4.67;3.67;;;;;;;;5058906;28;51109;-81
2022/07/08 09:40:21;;;;;;;;;6.00;5.33;;;;;;;;5062279;28;51988;-80
2022/07/08 09:42:46;;;;;;;;;8.00;6.67;;;;;;;;5049380;28;51083;-80
2022/07/08 09:45:11;;;;;;;;;6.67;5.33;;;;;;;;5065340;28;50917;-82
2022/07/08 09:47:36;;;;;;;;;5.00;4.00;;;;;;;;5055908;28;50841;-79
2022/07/08 09:50:02;;;;;;;;;4.33;4.00;;;;;;;;5064775;28;51201;-80
2022/07/08 09:52:27;;;;;;;;;6.33;5.67;;;;;;;;5069122;28;50914;-81
2022/07/08 09:55:00;;;;;;;;;3.00;2.33;;;;;;;;5065210;28;50983;-80
2022/07/08 09:57:26;;;;;;;;;6.67;6.67;;;;;;;;5037766;28;51026;-80
2022/07/08 09:59:53;;;;;;;;;5.00;5.00;;;;;;;;5062676;28;51660;-79
2022/07/08 10:02:18;;;;;;;;;5.00;5.00;;;;;;;;5069957;28;50968;-80
2022/07/08 10:04:44;;;;;;;;;6.67;5.33;;;;;;;;5073200;28;51043;-80
2022/07/08 10:07:09;;;;;;;;;6.00;6.00;;;;;;;;5072899;28;51434;-80
2022/07/08 10:09:35;;;;;;;;;6.00;4.00;;;;;;;;5060022;28;51989;-80
2022/07/08 10:12:00;;;;;;;;;3.67;3.33;;;;;;;;5034828;28;51070;-81
2022/07/08 10:14:27;;;;;;;;;4.33;3.33;;;;;;;;5052059;28;51356;-75
2022/07/08 10:16:52;;;;;;;;;4.00;4.00;;;;;;;;5061032;27;51155;-78
2022/07/08 10:19:21;;;;;;;;;3.67;3.33;;;;;;;;5064856;27;53072;-76
2022/07/08 10:21:50;;;;;;;;;4.67;4.67;;;;;;;;5057210;27;51167;-79
2022/07/08 10:24:20;;;;;;;;;4.33;4.00;;;;;;;;5059324;27;51220;-75
2022/07/08 10:26:46;;;;;;;;;5.00;5.00;;;;;;;;5062114;28;50969;-75
2022/07/08 10:29:11;;;;;;;;;1.67;1.67;;;;;;;;5064072;28;51920;-76
2022/07/08 10:31:51;;;;;;;;;9.00;8.00;;;;;;;;5055544;27;51082;-74
2022/07/08 10:34:18;;;;;;;;;5.67;5.33;;;;;;;;5058378;27;51011;-76
2022/07/08 10:36:50;;;;;;;;;6.33;5.33;;;;;;;;5034165;28;51288;-73
2022/07/08 10:39:29;;;;;;;;;6.00;5.00;;;;;;;;5070761;27;51203;-77
2022/07/08 10:41:55;;;;;;;;;5.33;5.33;;;;;;;;5044520;28;51005;-76
2022/07/08 10:44:41;;;;;;;;;6.00;5.00;;;;;;;;5064160;28;51104;-77
2022/07/08 10:47:10;;;;;;;;;4.33;4.00;;;;;;;;5058912;28;51073;-77
2022/07/08 10:49:41;;;;;;;;;4.00;3.00;;;;;;;;5060471;28;51939;-73
2022/07/08 10:52:06;;;;;;;;;5.00;4.33;;;;;;;;5041688;28;51127;-74
2022/07/08 10:54:36;;;;;;;;;4.00;4.00;;;;;;;;5071220;28;51038;-74
2022/07/08 10:57:02;;;;;;;;;4.00;4.00;;;;;;;;5042558;28;51352;-77
2022/07/08 10:59:31;;;;;;;;;3.67;3.67;;;;;;;;5061984;28;51119;-75
2022/07/08 11:02:13;;;;;;;;;4.67;4.33;;;;;;;;5061742;27;51027;-74
2022/07/08 11:04:38;;;;;;;;;2.00;2.00;;;;;;;;5043219;28;51113;-77
2022/07/08 11:09:57;;;;;;;;;3.33;3.00;;;;;;;;5056711;27;51823;-80
2022/07/08 11:12:24;;;;;;;;;4.33;3.67;;;;;;;;5057613;28;51092;-77
2022/07/08 11:14:54;;;;;;;;;4.00;3.33;;;;;;;;5065018;27;51152;-78
2022/07/08 11:17:23;;;;;;;;;5.67;5.00;;;;;;;;5071941;27;51123;-79
2022/07/08 11:19:49;;;;;;;;;7.00;7.00;;;;;;;;5056547;28;51080;-82
2022/07/08 11:22:15;;;;;;;;;5.33;5.00;;;;;;;;5071152;27;51028;-78
2022/07/08 11:24:40;;;;;;;;;4.00;2.33;;;;;;;;5072405;28;50875;-80
2022/07/08 11:27:06;;;;;;;;;6.00;5.00;;;;;;;;5065028;27;51555;-78
2022/07/08 11:29:32;;;;;;;;;4.33;4.33;;;;;;;;5052280;28;51278;-79
2022/07/08 11:31:58;;;;;;;;;3.67;3.00;;;;;;;;5063560;27;51019;-80
2022/07/08 11:34:24;;;;;;;;;3.33;3.33;;;;;;;;5059643;28;51106;-79
2022/07/08 11:36:57;;;;;;;;;5.00;5.00;;;;;;;;5052228;28;51218;-77
2022/07/08 11:39:22;;;;;;;;;4.00;4.00;;;;;;;;5064073;28;51442;-77
2022/07/08 11:41:48;;;;;;;;;2.33;2.33;;;;;;;;5060793;27;51081;-80
2022/07/08 11:44:13;;;;;;;;;4.00;4.00;;;;;;;;5059884;27;51096;-76
2022/07/08 11:46:46;;;;;;;;;4.33;4.33;;;;;;;;5059387;27;51132;-77
2022/07/08 11:49:11;;;;;;;;;3.33;3.33;;;;;;;;5066102;28;51330;-75
2022/07/08 11:51:36;;;;;;;;;5.33;4.33;;;;;;;;5059934;27;51051;-76
2022/07/08 11:54:01;;;;;;;;;4.00;4.00;;;;;;;;5064137;27;50963;-78
2022/07/08 11:56:27;;;;;;;;;5.33;5.33;;;;;;;;5079146;27;50879;-78
2022/07/08 11:58:52;;;;;;;;;4.00;3.67;;;;;;;;5070547;27;51863;-76
2022/07/08 12:01:19;;;;;;;;;4.67;4.67;;;;;;;;5067171;27;51152;-76
2022/07/08 12:03:45;;;;;;;;;3.33;3.33;;;;;;;;5057729;27;51272;-77
2022/07/08 12:06:10;;;;;;;;;3.33;3.33;;;;;;;;5068518;27;51158;-75
2022/07/08 12:08:40;;;;;;;;;2.67;2.67;;;;;;;;5060500;27;51887;-77
2022/07/08 12:11:12;;;;;;;;;3.00;3.00;;;;;;;;5058336;27;51171;-81
2022/07/08 12:13:44;;;;;;;;;2.67;2.67;;;;;;;;5047321;27;51152;-78
2022/07/08 12:16:09;;;;;;;;;4.33;4.33;;;;;;;;5068400;27;51874;-74
2022/07/08 12:18:36;;;;;;;;;2.67;2.33;;;;;;;;5058542;27;51167;-76
2022/07/08 12:21:18;;;;;;;;;5.67;5.33;;;;;;;;5074294;27;51035;-74
2022/07/08 12:23:43;;;;;;;;;4.67;4.00;;;;;;;;5058868;27;51195;-76
2022/07/08 12:26:10;;;;;;;;;3.33;2.67;;;;;;;;5058762;27;50959;-75
2022/07/08 12:28:35;;;;;;;;;2.00;2.00;;;;;;;;5035721;28;51056;-75
2022/07/08 12:31:00;;;;;;;;;4.67;4.33;;;;;;;;5053904;28;52062;-75
2022/07/08 12:33:29;;;;;;;;;4.33;4.00;;;;;;;;5058600;28;51212;-76
2022/07/08 12:35:54;;;;;;;;;4.33;4.33;;;;;;;;5073651;28;51061;-74
2022/07/08 12:38:23;;;;;;;;;4.33;4.00;;;;;;;;5074334;28;52091;-75
2022/07/08 12:40:48;;;;;;;;;4.00;4.00;;;;;;;;5071410;28;51022;-76
2022/07/08 12:43:14;;;;;;;;;3.00;3.00;;;;;;;;5053938;28;51085;-76
2022/07/08 12:45:40;;;;;;;;;4.67;3.33;;;;;;;;5054170;28;51106;-75
2022/07/08 12:48:05;;;;;;;;;4.00;4.00;;;;;;;;5053462;28;51937;-74
2022/07/08 12:50:31;;;;;;;;;3.33;3.33;;;;;;;;5035606;28;51117;-75
2022/07/08 12:52:57;;;;;;;;;5.00;4.00;;;;;;;;5059355;28;51064;-76
2022/07/08 12:55:22;;;;;;;;;4.33;3.33;;;;;;;;5053689;28;51355;-76
2022/07/08 12:57:48;;;;;;;;;3.00;3.00;;;;;;;;5053748;28;51632;-74
2022/07/08 13:00:13;;;;;;;;;5.67;5.67;;;;;;;;5054221;28;51256;-74
2022/07/08 13:02:39;;;;;;;;;6.33;5.00;;;;;;;;5064616;27;52804;-75
2022/07/08 13:05:05;;;;;;;;;4.00;3.67;;;;;;;;5058199;28;50934;-73
2022/07/08 13:07:30;;;;;;;;;5.00;4.33;;;;;;;;5053417;28;51131;-75
2022/07/08 13:09:57;;;;;;;;;3.00;3.00;;;;;;;;5065569;28;50908;-74
2022/07/08 13:12:23;;;;;;;;;5.00;4.00;;;;;;;;5041720;28;51193;-75
2022/07/08 13:14:48;;;;;;;;;4.67;3.00;;;;;;;;5053217;28;51290;-76
2022/07/08 13:17:15;;;;;;;;;3.00;3.00;;;;;;;;5063423;28;51822;-75
2022/07/08 13:19:40;;;;;;;;;5.67;5.67;;;;;;;;5073598;28;50978;-73
2022/07/08 13:22:07;;;;;;;;;3.00;3.00;;;;;;;;5070655;28;51151;-74
2022/07/08 13:24:33;;;;;;;;;6.00;5.00;;;;;;;;5055818;28;51008;-74
2022/07/08 13:26:58;;;;;;;;;4.67;3.33;;;;;;;;5073183;28;52086;-74
2022/07/08 13:29:23;;;;;;;;;3.67;3.00;;;;;;;;5073359;28;51156;-75
2022/07/08 13:31:48;;;;;;;;;4.00;4.00;;;;;;;;5066272;28;51186;-75
2022/07/08 13:34:19;;;;;;;;;3.67;3.67;;;;;;;;5057175;27;51182;-73
2022/07/08 13:36:44;;;;;;;;;5.00;5.00;;;;;;;;5061418;28;52033;-75
2022/07/08 13:39:09;;;;;;;;;4.67;4.67;;;;;;;;5054748;28;51001;-74
2022/07/08 13:41:34;;;;;;;;;3.67;3.67;;;;;;;;5071588;28;50962;-74
2022/07/08 13:44:00;;;;;;;;;3.00;3.00;;;;;;;;5054754;28;51306;-75
2022/07/08 13:46:27;;;;;;;;;3.00;3.00;;;;;;;;5072659;28;50914;-74
2022/07/08 13:48:53;;;;;;;;;4.00;3.00;;;;;;;;5073035;28;51194;-75
2022/07/08 13:51:18;;;;;;;;;3.33;3.00;;;;;;;;5073040;28;50947;-74
2022/07/08 13:53:44;;;;;;;;;1.00;1.00;;;;;;;;5054972;28;51057;-76
2022/07/08 13:56:09;;;;;;;;;4.67;3.67;;;;;;;;5052766;28;51623;-74
2022/07/08 13:58:34;;;;;;;;;2.33;2.00;;;;;;;;5035857;28;51259;-73
2022/07/08 14:01:01;;;;;;;;;2.33;2.33;;;;;;;;5063350;28;50887;-73
2022/07/08 14:03:26;;;;;;;;;2.33;2.33;;;;;;;;5057235;28;51343;-73
2022/07/08 14:05:51;;;;;;;;;4.00;3.00;;;;;;;;5052140;28;51529;-74
2022/07/08 14:08:16;;;;;;;;;4.67;4.33;;;;;;;;5052248;28;51217;-73
2022/07/08 14:10:42;;;;;;;;;3.67;3.00;;;;;;;;5052502;28;50833;-73
2022/07/08 14:13:07;;;;;;;;;2.00;2.00;;;;;;;;5052526;28;50862;-74
2022/07/08 14:15:33;;;;;;;;;3.67;3.00;;;;;;;;5035110;28;52982;-75
2022/07/08 14:17:58;;;;;;;;;2.00;2.00;;;;;;;;5057358;28;50937;-74
2022/07/08 14:20:23;;;;;;;;;2.00;2.00;;;;;;;;5034104;28;51101;-74
2022/07/08 14:22:48;;;;;;;;;2.33;2.33;;;;;;;;5072615;28;50899;-73
2022/07/08 14:25:14;;;;;;;;;2.00;2.00;;;;;;;;5071826;28;50946;-75
2022/07/08 14:27:40;;;;;;;;;2.67;2.33;;;;;;;;5072220;28;50969;-73
2022/07/08 14:30:05;;;;;;;;;4.00;4.00;;;;;;;;5056250;28;51012;-74
2022/07/08 14:32:30;;;;;;;;;6.33;6.00;;;;;;;;5052060;28;50958;-72
2022/07/08 14:34:56;;;;;;;;;2.33;2.33;;;;;;;;5051516;28;51940;-71
2022/07/08 14:37:22;;;;;;;;;4.67;4.00;;;;;;;;5052073;28;50865;-73
2022/07/08 14:39:47;;;;;;;;;1.00;1.00;;;;;;;;5033720;28;51175;-73
2022/07/08 14:42:12;;;;;;;;;2.67;2.67;;;;;;;;5051844;28;51172;-73
2022/07/08 14:44:37;;;;;;;;;3.00;2.67;;;;;;;;5051485;28;52246;-73